createdAt,value
2019-03-21T00:04:39.302Z,8.00
2019-03-21T00:07:31.364Z,9.97
2019-03-21T00:10:42.243Z,8.63
2019-03-21T00:16:34.168Z,11.73
2019-03-21T00:19:26.211Z,9.97
2019-03-21T00:21:58.716Z,11.47
2019-03-21T00:25:11.786Z,11.67
2019-03-21T00:27:44.293Z,9.00
2019-03-21T00:30:58.316Z,10.03
2019-03-21T00:33:30.808Z,9.60
2019-03-21T00:36:03.333Z,9.43
2019-03-21T00:42:08.908Z,11.07
2019-03-21T00:44:41.410Z,10.90
2019-03-21T00:47:13.914Z,13.00
2019-03-21T00:49:46.534Z,10.33
2019-03-21T00:52:38.626Z,9.97
2019-03-21T00:55:11.526Z,8.23
2019-03-21T01:00:47.134Z,9.73
2019-03-21T01:04:00.168Z,10.20
2019-03-21T01:06:32.689Z,12.17
2019-03-21T01:09:47.055Z,10.63
2019-03-21T01:12:19.555Z,9.83
2019-03-21T01:15:32.573Z,10.27
2019-03-21T01:18:05.093Z,9.57
2019-03-21T01:23:37.827Z,10.27
2019-03-21T01:26:10.325Z,13.63
2019-03-21T01:29:02.417Z,11.07
2019-03-21T01:31:34.936Z,11.33
2019-03-21T01:34:48.010Z,9.77
2019-03-21T01:37:40.108Z,10.37
2019-03-21T01:43:29.234Z,10.87
2019-03-21T01:46:42.483Z,9.43
2019-03-21T01:49:34.576Z,12.60
2019-03-21T01:55:08.566Z,9.77
2019-03-21T02:01:00.320Z,11.30
2019-03-21T02:03:52.386Z,11.17
2019-03-21T02:06:44.422Z,10.10
2019-03-21T02:09:36.509Z,9.00
2019-03-21T02:12:28.580Z,14.73
2019-03-21T02:15:01.113Z,10.67
2019-03-21T02:18:14.175Z,9.00
2019-03-21T02:21:06.223Z,10.13
2019-03-21T02:23:58.291Z,9.97
2019-03-21T02:26:30.782Z,10.63
2019-03-21T02:29:03.283Z,10.67
2019-03-21T02:32:16.334Z,9.70
2019-03-21T02:34:48.977Z,11.13
2019-03-21T02:37:41.046Z,13.40
2019-03-21T02:40:15.733Z,9.93
2019-03-21T02:43:28.774Z,9.30
2019-03-21T02:46:01.320Z,13.07
2019-03-21T02:51:33.873Z,10.00
2019-03-21T02:57:25.852Z,10.57
2019-03-21T02:59:58.369Z,10.93
2019-03-21T03:02:30.846Z,12.30
2019-03-21T03:08:45.058Z,10.40
2019-03-21T03:11:58.130Z,9.67
2019-03-21T03:14:49.818Z,9.80
2019-03-21T03:17:22.291Z,10.33
2019-03-21T03:19:54.791Z,11.23
2019-03-21T03:22:27.306Z,10.83
2019-03-21T03:28:03.353Z,12.37
2019-03-21T03:30:55.424Z,9.87
2019-03-21T03:33:47.490Z,11.13
2019-03-21T03:36:19.999Z,11.03
2019-03-21T03:39:33.039Z,9.30
2019-03-21T03:42:25.111Z,10.90
2019-03-21T03:45:17.150Z,10.57
2019-03-21T03:47:49.668Z,9.40
2019-03-21T03:50:22.163Z,13.57
2019-03-21T03:52:54.812Z,9.10
2019-03-21T03:55:27.318Z,10.97
2019-03-21T03:58:00.742Z,10.40
2019-03-21T04:00:33.230Z,9.80
2019-03-21T04:03:05.771Z,11.13
2019-03-21T04:05:38.260Z,12.23
2019-03-21T04:08:10.755Z,9.50
2019-03-21T04:10:43.986Z,9.90
2019-03-21T04:13:16.510Z,11.87
2019-03-21T04:15:53.088Z,10.37
2019-03-21T04:18:23.445Z,11.77
2019-03-21T04:20:56.655Z,12.83
2019-03-21T04:23:29.173Z,9.97
2019-03-21T04:26:05.493Z,9.73
2019-03-21T04:28:38.297Z,11.60
2019-03-21T04:31:10.773Z,10.40
2019-03-21T04:33:43.965Z,9.37
2019-03-21T04:36:16.510Z,9.67
2019-03-21T04:38:49.063Z,10.00
2019-03-21T04:41:21.561Z,9.97
2019-03-21T04:43:54.096Z,9.67
2019-03-21T04:46:26.620Z,9.57
2019-03-21T04:48:59.474Z,10.53
2019-03-21T04:51:31.952Z,10.93
2019-03-21T04:54:04.509Z,10.70
2019-03-21T04:56:37.042Z,10.87
2019-03-21T04:59:09.563Z,9.00
2019-03-21T05:01:42.139Z,11.17
2019-03-21T05:04:14.706Z,11.30
2019-03-21T05:06:47.191Z,11.67
2019-03-21T05:09:19.948Z,10.23
2019-03-21T05:11:52.449Z,11.27
2019-03-21T05:14:25.065Z,12.87
2019-03-21T05:16:57.691Z,11.63
2019-03-21T05:19:30.208Z,10.43
2019-03-21T05:22:02.818Z,9.40
2019-03-21T05:24:35.384Z,11.70
2019-03-21T05:27:07.880Z,12.43
2019-03-21T05:29:40.433Z,13.40
2019-03-21T05:32:12.920Z,13.43
2019-03-21T05:34:45.467Z,10.87
2019-03-21T05:37:17.989Z,13.17
2019-03-21T05:39:50.539Z,10.83
2019-03-21T05:42:24.345Z,9.53
2019-03-21T05:44:58.089Z,10.70
2019-03-21T05:47:30.628Z,13.60
2019-03-21T05:50:03.563Z,10.43
2019-03-21T05:52:36.096Z,11.50
2019-03-21T05:55:09.079Z,10.60
2019-03-21T05:57:41.639Z,10.70
2019-03-21T06:00:18.006Z,10.13
2019-03-21T06:02:50.575Z,9.23
2019-03-21T06:05:23.222Z,9.20
2019-03-21T06:08:08.223Z,9.20
2019-03-21T06:10:40.762Z,11.70
2019-03-21T06:13:13.269Z,9.90
2019-03-21T06:15:45.815Z,12.80
2019-03-21T06:19:04.246Z,10.70
2019-03-21T06:22:12.361Z,10.70
2019-03-21T06:25:26.258Z,11.90
2019-03-21T06:27:59.063Z,12.87
2019-03-21T06:30:31.945Z,11.47
2019-03-21T06:33:04.478Z,10.80
2019-03-21T06:35:37.041Z,10.03
2019-03-21T06:38:09.531Z,11.27
2019-03-21T06:40:42.086Z,11.07
2019-03-21T06:43:14.591Z,11.40
2019-03-21T06:45:48.102Z,9.80
2019-03-21T06:48:20.836Z,11.63
2019-03-21T06:50:53.625Z,9.87
2019-03-21T06:53:26.173Z,10.83
2019-03-21T06:55:58.785Z,11.57
2019-03-21T06:58:31.320Z,10.77
2019-03-21T07:01:04.664Z,11.27
2019-03-21T07:03:37.170Z,13.53
2019-03-21T07:06:09.715Z,14.03
2019-03-21T07:08:42.213Z,10.77
2019-03-21T07:11:14.722Z,10.73
2019-03-21T07:13:47.262Z,11.93
2019-03-21T07:16:19.791Z,11.60
2019-03-21T07:18:52.375Z,10.67
2019-03-21T07:21:24.881Z,10.40
2019-03-21T07:23:57.422Z,11.30
2019-03-21T07:26:29.928Z,13.27
2019-03-21T07:29:02.478Z,10.93
2019-03-21T07:31:35.029Z,10.10
2019-03-21T07:34:10.030Z,11.20
2019-03-21T07:36:41.998Z,10.50
2019-03-21T07:39:14.514Z,12.97
2019-03-21T07:41:47.000Z,11.90
2019-03-21T07:44:19.687Z,13.60
2019-03-21T07:46:52.237Z,10.83
2019-03-21T07:49:24.781Z,11.27
2019-03-21T07:51:57.340Z,12.23
2019-03-21T07:54:29.881Z,10.93
2019-03-21T07:57:02.472Z,11.43
2019-03-21T07:59:34.952Z,10.37
2019-03-21T08:02:07.542Z,11.60
2019-03-21T08:04:40.088Z,11.43
2019-03-21T08:07:12.620Z,9.33
2019-03-21T08:09:45.130Z,9.30
2019-03-21T08:12:17.616Z,9.50
2019-03-21T08:14:50.165Z,9.80
2019-03-21T08:17:22.643Z,10.27
2019-03-21T08:19:55.195Z,9.90
2019-03-21T08:22:27.692Z,10.20
2019-03-21T08:25:00.383Z,9.80
2019-03-21T08:27:32.837Z,11.47
2019-03-21T08:30:06.402Z,9.80
2019-03-21T08:32:38.923Z,13.07
2019-03-21T08:35:11.455Z,11.20
2019-03-21T08:37:43.996Z,10.27
2019-03-21T08:40:16.568Z,8.93
2019-03-21T08:42:49.098Z,10.03
2019-03-21T08:45:21.678Z,10.63
2019-03-21T08:47:54.170Z,10.93
2019-03-21T08:50:26.753Z,9.17
2019-03-21T08:52:59.263Z,10.47
2019-03-21T08:55:31.808Z,10.17
2019-03-21T08:58:04.329Z,10.57
2019-03-21T09:00:36.865Z,9.27
2019-03-21T09:03:09.364Z,7.63
2019-03-21T09:05:41.933Z,7.93
2019-03-21T09:08:14.444Z,8.63
2019-03-21T09:10:47.006Z,9.30
2019-03-21T09:13:19.502Z,7.90
2019-03-21T09:15:52.014Z,8.83
2019-03-21T09:18:24.654Z,7.27
2019-03-21T09:20:57.194Z,9.03
2019-03-21T09:23:29.749Z,8.73
2019-03-21T09:26:02.333Z,7.43
2019-03-21T09:28:34.822Z,11.47
2019-03-21T09:31:07.346Z,9.00
2019-03-21T09:33:39.866Z,8.73
2019-03-21T09:36:12.454Z,7.43
2019-03-21T09:38:44.966Z,6.63
2019-03-21T09:41:17.495Z,6.73
2019-03-21T09:43:50.028Z,8.03
2019-03-21T09:46:22.566Z,6.53
2019-03-21T09:48:55.062Z,8.30
2019-03-21T09:51:31.051Z,6.33
2019-03-21T09:54:09.804Z,5.87
2019-03-21T09:56:36.442Z,5.73
2019-03-21T09:59:08.966Z,5.70
2019-03-21T10:01:41.488Z,6.17
2019-03-21T10:04:14.640Z,6.07
2019-03-21T10:06:47.105Z,5.47
2019-03-21T10:09:19.633Z,6.40
2019-03-21T10:11:52.119Z,6.80
2019-03-21T10:14:24.687Z,5.23
2019-03-21T10:16:57.155Z,5.93
2019-03-21T10:19:29.705Z,6.83
2019-03-21T10:22:02.254Z,4.50
2019-03-21T10:24:35.282Z,6.50
2019-03-21T10:27:07.767Z,5.87
2019-03-21T10:29:40.297Z,5.07
2019-03-21T10:32:14.527Z,4.40
2019-03-21T10:34:47.266Z,5.80
2019-03-21T10:37:19.806Z,5.23
2019-03-21T10:39:52.345Z,7.20
2019-03-21T10:42:24.853Z,6.23
2019-03-21T10:44:57.407Z,6.77
2019-03-21T10:47:29.915Z,4.83
2019-03-21T10:50:02.959Z,6.23
2019-03-21T10:52:35.459Z,4.77
2019-03-21T10:55:07.974Z,5.40
2019-03-21T10:57:40.480Z,4.10
2019-03-21T11:00:13.026Z,5.37
2019-03-21T11:02:45.526Z,6.67
2019-03-21T11:05:18.058Z,6.07
2019-03-21T11:07:50.604Z,5.60
2019-03-21T11:10:23.126Z,7.20
2019-03-21T11:12:55.846Z,6.00
2019-03-21T11:15:28.476Z,5.30
2019-03-21T11:18:01.002Z,5.80
2019-03-21T11:20:38.102Z,6.77
2019-03-21T11:23:10.659Z,7.10
2019-03-21T11:25:43.146Z,5.23
2019-03-21T11:28:17.630Z,4.83
2019-03-21T11:30:50.083Z,5.40
2019-03-21T11:33:22.637Z,8.50
2019-03-21T11:35:55.150Z,6.27
2019-03-21T11:38:27.672Z,5.80
2019-03-21T11:41:00.187Z,7.60
2019-03-21T11:43:32.701Z,6.90
2019-03-21T11:46:05.240Z,5.50
2019-03-21T11:48:37.771Z,5.83
2019-03-21T11:51:10.314Z,8.17
2019-03-21T11:53:42.849Z,6.30
2019-03-21T11:56:15.344Z,7.97
2019-03-21T11:58:47.898Z,8.00
2019-03-21T12:01:20.376Z,6.40
2019-03-21T12:03:53.152Z,6.63
2019-03-21T12:06:25.670Z,6.80
2019-03-21T12:08:58.190Z,5.90
2019-03-21T12:11:30.677Z,6.30
2019-03-21T12:14:03.210Z,6.13
2019-03-21T12:16:35.718Z,6.80
2019-03-21T12:19:08.267Z,7.67
2019-03-21T12:21:40.747Z,6.90
2019-03-21T12:24:13.316Z,7.30
2019-03-21T12:26:45.838Z,5.93
2019-03-21T12:29:18.425Z,6.40
2019-03-21T12:31:50.982Z,6.67
2019-03-21T12:34:23.529Z,5.93
2019-03-21T12:36:56.071Z,6.13
2019-03-21T12:39:29.091Z,6.03
2019-03-21T12:42:01.775Z,7.83
2019-03-21T12:44:34.296Z,6.40
2019-03-21T12:47:06.806Z,6.93
2019-03-21T12:49:39.285Z,5.70
2019-03-21T12:52:11.823Z,7.63
2019-03-21T12:54:44.351Z,7.13
2019-03-21T12:57:16.897Z,5.03
2019-03-21T12:59:49.538Z,5.83
2019-03-21T13:02:32.008Z,5.57
2019-03-21T13:04:56.441Z,5.87
2019-03-21T13:07:28.959Z,6.63
2019-03-21T13:10:01.461Z,5.87
2019-03-21T13:12:34.006Z,4.93
2019-03-21T13:15:06.644Z,5.63
2019-03-21T13:17:39.176Z,5.28
2019-03-21T13:20:11.711Z,5.95
2019-03-21T13:22:52.519Z,5.30
2019-03-21T13:25:18.643Z,5.20
2019-03-21T13:27:51.152Z,6.72
2019-03-21T13:30:23.662Z,5.22
2019-03-21T13:32:56.184Z,5.53
2019-03-21T13:35:33.064Z,5.30
2019-03-21T13:38:03.140Z,5.73
2019-03-21T13:40:35.680Z,6.17
2019-03-21T13:43:08.187Z,5.30
2019-03-21T13:45:40.748Z,6.57
2019-03-21T13:48:13.253Z,6.72
2019-03-21T13:50:45.786Z,5.70
2019-03-21T13:53:19.224Z,5.73
2019-03-21T13:55:51.840Z,5.33
2019-03-21T13:58:24.335Z,5.70
2019-03-21T14:00:56.871Z,5.50
2019-03-21T14:03:29.409Z,5.30
2019-03-21T14:06:01.953Z,5.60
2019-03-21T14:08:34.476Z,5.62
2019-03-21T14:11:07.008Z,5.40
2019-03-21T14:13:39.513Z,4.97
2019-03-21T14:16:12.070Z,6.35
2019-03-21T14:18:44.551Z,5.83
2019-03-21T14:21:17.116Z,5.22
2019-03-21T14:23:49.631Z,5.50
2019-03-21T14:26:22.177Z,5.55
2019-03-21T14:28:54.982Z,6.90
2019-03-21T14:31:27.515Z,5.85
2019-03-21T14:33:59.993Z,5.70
2019-03-21T14:36:32.546Z,4.97
2019-03-21T14:39:06.301Z,5.15
2019-03-21T14:41:38.832Z,5.70
2019-03-21T14:44:11.354Z,5.60
2019-03-21T14:46:43.871Z,5.22
2019-03-21T14:49:16.397Z,4.90
2019-03-21T14:51:48.892Z,5.93
2019-03-21T14:54:21.446Z,6.73
2019-03-21T14:56:53.930Z,5.05
2019-03-21T14:59:26.445Z,6.05
2019-03-21T15:01:58.922Z,4.63
2019-03-21T15:04:31.492Z,5.10
2019-03-21T15:07:03.968Z,5.28
2019-03-21T15:09:36.536Z,5.15
2019-03-21T15:12:09.077Z,5.45
2019-03-21T15:14:41.594Z,6.90
2019-03-21T15:17:14.142Z,5.20
2019-03-21T15:19:46.689Z,5.60
2019-03-21T15:22:19.251Z,5.42
2019-03-21T15:24:51.736Z,5.20
2019-03-21T15:27:24.241Z,6.12
2019-03-21T15:29:56.833Z,5.30
2019-03-21T15:32:29.385Z,5.58
2019-03-21T15:35:01.891Z,5.47
2019-03-21T15:37:34.419Z,5.50
2019-03-21T15:40:08.209Z,5.13
2019-03-21T15:42:40.698Z,6.12
2019-03-21T15:45:22.339Z,6.27
2019-03-21T15:47:48.523Z,6.08
2019-03-21T15:50:29.090Z,6.40
2019-03-21T15:53:01.595Z,5.80
2019-03-21T15:55:34.346Z,5.72
2019-03-21T15:58:06.950Z,5.30
2019-03-21T16:00:40.384Z,7.20
2019-03-21T16:03:13.116Z,5.62
2019-03-21T16:05:45.718Z,5.63
2019-03-21T16:08:18.218Z,5.73
2019-03-21T16:10:50.735Z,5.60
2019-03-21T16:13:25.052Z,5.47
2019-03-21T16:15:57.599Z,5.42
2019-03-21T16:18:30.142Z,6.25
2019-03-21T16:21:02.696Z,6.90
2019-03-21T16:23:35.255Z,4.60
2019-03-21T16:26:09.580Z,4.63
2019-03-21T16:28:42.161Z,5.63
2019-03-21T16:31:14.711Z,4.90
2019-03-21T16:33:47.336Z,5.13
2019-03-21T16:36:19.972Z,5.30
2019-03-21T16:38:52.574Z,4.70
2019-03-21T16:41:25.123Z,4.20
2019-03-21T16:43:57.692Z,4.33
2019-03-21T16:46:30.259Z,4.40
2019-03-21T16:49:02.866Z,4.43
2019-03-21T16:51:35.398Z,6.37
2019-03-21T16:54:16.545Z,4.30
2019-03-21T16:56:42.499Z,3.90
2019-03-21T16:59:15.331Z,4.40
2019-03-21T17:01:47.999Z,5.10
2019-03-21T17:04:20.528Z,4.47
2019-03-21T17:06:53.128Z,4.13
2019-03-21T17:09:25.660Z,3.53
2019-03-21T17:11:58.193Z,3.63
2019-03-21T17:14:30.881Z,3.83
2019-03-21T17:17:03.456Z,3.83
2019-03-21T17:19:36.080Z,4.20
2019-03-21T17:22:08.791Z,3.97
2019-03-21T17:24:41.507Z,3.90
2019-03-21T17:27:14.095Z,4.43
2019-03-21T17:29:46.663Z,5.30
2019-03-21T17:32:19.478Z,3.47
2019-03-21T17:34:52.017Z,4.03
2019-03-21T17:37:26.135Z,3.80
2019-03-21T17:39:58.725Z,3.93
2019-03-21T17:42:31.297Z,4.27
2019-03-21T17:45:06.398Z,3.87
2019-03-21T17:47:38.962Z,9.40
2019-03-21T17:50:12.013Z,14.97
2019-03-21T17:52:44.623Z,27.67
2019-03-21T17:55:17.190Z,27.40
2019-03-21T17:57:49.954Z,19.57
2019-03-21T18:00:25.206Z,12.67
2019-03-21T18:02:57.791Z,9.77
2019-03-21T18:05:30.576Z,8.67
2019-03-21T18:08:03.222Z,10.50
2019-03-21T18:10:35.750Z,8.60
2019-03-21T18:13:08.419Z,6.70
2019-03-21T18:15:42.818Z,6.20
2019-03-21T18:18:15.460Z,7.23
2019-03-21T18:20:48.158Z,4.87
2019-03-21T18:23:20.735Z,5.60
2019-03-21T18:25:53.307Z,5.60
2019-03-21T18:28:26.275Z,5.30
2019-03-21T18:30:59.026Z,5.13
2019-03-21T18:33:31.625Z,5.33
2019-03-21T18:36:04.242Z,5.17
2019-03-21T18:38:37.972Z,4.57
2019-03-21T18:41:10.658Z,5.27
2019-03-21T18:43:43.324Z,5.80
2019-03-21T18:46:15.930Z,5.60
2019-03-21T18:48:48.484Z,6.20
2019-03-21T18:51:21.062Z,6.07
2019-03-21T18:53:53.644Z,4.83
2019-03-21T18:56:26.292Z,5.37
2019-03-21T18:58:58.986Z,4.53
2019-03-21T19:01:31.702Z,5.60
2019-03-21T19:04:04.504Z,4.30
2019-03-21T19:06:38.387Z,4.50
2019-03-21T19:09:10.976Z,4.73
2019-03-21T19:11:43.638Z,4.97
2019-03-21T19:14:16.322Z,4.97
2019-03-21T19:16:48.911Z,4.73
2019-03-21T19:19:21.577Z,5.77
2019-03-21T19:21:54.187Z,6.30
2019-03-21T19:24:26.781Z,5.60
2019-03-21T19:26:59.821Z,6.83
2019-03-21T19:29:32.502Z,6.93
2019-03-21T19:32:05.078Z,5.30
2019-03-21T19:34:37.649Z,5.37
2019-03-21T19:37:10.300Z,4.73
2019-03-21T19:39:42.910Z,5.07
2019-03-21T19:42:15.522Z,5.23
2019-03-21T19:44:48.210Z,5.60
2019-03-21T19:47:24.360Z,5.43
2019-03-21T19:49:55.609Z,6.07
2019-03-21T19:52:30.075Z,6.03
2019-03-21T19:55:02.985Z,6.00
2019-03-21T19:57:37.649Z,5.10
2019-03-21T20:00:12.969Z,5.40
2019-03-21T20:02:45.618Z,5.30
2019-03-21T20:05:18.748Z,5.93
2019-03-21T20:07:51.383Z,4.43
2019-03-21T20:10:23.956Z,6.33
2019-03-21T20:12:56.607Z,5.97
2019-03-21T20:15:29.177Z,6.33
2019-03-21T20:18:01.991Z,5.27
2019-03-21T20:20:34.599Z,5.30
2019-03-21T20:23:07.373Z,4.93
2019-03-21T20:25:43.195Z,5.53
2019-03-21T20:28:14.627Z,6.03
2019-03-21T20:30:47.317Z,11.67
2019-03-21T20:33:21.703Z,32.23
2019-03-21T20:35:54.350Z,53.67
2019-03-21T20:38:27.247Z,32.70
2019-03-21T20:40:59.923Z,21.60
2019-03-21T20:43:32.548Z,18.90
2019-03-21T20:46:05.316Z,21.13
2019-03-21T20:48:36.320Z,40.87
2019-03-21T20:51:08.973Z,32.43
2019-03-21T20:53:41.618Z,38.60
2019-03-21T20:56:14.301Z,38.37
2019-03-21T20:58:46.917Z,38.47
2019-03-21T21:01:20.663Z,30.23
2019-03-21T21:03:53.373Z,18.40
2019-03-21T21:06:25.943Z,15.33
2019-03-21T21:08:58.534Z,12.90
2019-03-21T21:11:31.126Z,15.10
2019-03-21T21:14:03.966Z,15.60
2019-03-21T21:16:38.339Z,17.50
2019-03-21T21:19:10.980Z,14.90
2019-03-21T21:21:43.581Z,12.37
2019-03-21T21:24:16.191Z,13.13
2019-03-21T21:26:50.653Z,12.83
2019-03-21T21:29:23.312Z,13.23
2019-03-21T21:31:55.885Z,11.83
2019-03-21T21:34:29.618Z,11.97
2019-03-21T21:37:02.262Z,11.40
2019-03-21T21:39:34.892Z,11.07
2019-03-21T21:42:07.849Z,9.63
2019-03-21T21:44:40.404Z,10.87
2019-03-21T21:47:13.047Z,9.00
2019-03-21T21:49:45.646Z,8.47
2019-03-21T21:52:18.242Z,7.40
2019-03-21T21:54:50.806Z,7.10
2019-03-21T21:57:23.419Z,6.93
2019-03-21T21:59:55.977Z,7.13
2019-03-21T22:02:28.575Z,7.30
2019-03-21T22:05:01.126Z,7.30
2019-03-21T22:07:33.676Z,7.20
2019-03-21T22:10:46.857Z,7.20
2019-03-21T22:13:19.459Z,6.70
2019-03-21T22:15:51.999Z,7.97
2019-03-21T22:18:24.575Z,7.03
2019-03-21T22:20:57.258Z,6.97
2019-03-21T22:23:29.889Z,7.13
2019-03-21T22:26:02.514Z,7.13
2019-03-21T22:28:35.126Z,6.97
2019-03-21T22:31:07.839Z,8.13
2019-03-21T22:33:40.420Z,7.13
2019-03-21T22:36:13.004Z,7.20
2019-03-21T22:38:45.691Z,8.00
2019-03-21T22:41:19.018Z,7.63
2019-03-21T22:43:52.763Z,8.33
2019-03-21T22:46:25.295Z,10.23
2019-03-21T22:48:57.982Z,9.10
2019-03-21T22:51:30.566Z,9.30
2019-03-21T22:54:03.195Z,9.27
2019-03-21T22:56:41.176Z,17.27
2019-03-21T22:59:10.198Z,16.43
2019-03-21T23:01:42.742Z,15.40
2019-03-21T23:04:15.279Z,14.23
2019-03-21T23:06:47.835Z,13.10
2019-03-21T23:09:20.392Z,16.80
2019-03-21T23:11:52.923Z,31.30
2019-03-21T23:14:25.503Z,20.30
2019-03-21T23:16:57.980Z,19.50
2019-03-21T23:19:30.518Z,20.67
2019-03-21T23:22:03.070Z,11.80
2019-03-21T23:24:35.590Z,9.50
2019-03-21T23:27:08.087Z,12.07
2019-03-21T23:29:40.634Z,10.17
2019-03-21T23:32:13.107Z,11.80
2019-03-21T23:34:45.632Z,9.27
2019-03-21T23:37:18.154Z,9.00
2019-03-21T23:39:50.718Z,7.70
2019-03-21T23:42:23.237Z,10.90
2019-03-21T23:44:55.738Z,8.40
2019-03-21T23:47:28.272Z,8.30
2019-03-21T23:50:00.842Z,8.10
2019-03-21T23:52:33.346Z,8.00
2019-03-21T23:55:25.042Z,9.60
2019-03-21T23:57:57.601Z,9.57
